LFMO 181530Z AUTO 34015KT 300V010 CAVOK 26/15 Q1010 BECMG 33015G25KT

ElémentsDécodage
LFMO Station météo située sur l'aérodrome de ORANGE Caritat
181530Z émis le 18 du mois à 15h30 UTC
AUTO Bulletin édité par un automate
34015KT vent du 340°, 15 noeuds
300V010 vent de direction variable entre 300° et 010°
CAVOK Ceiling And Visibility OK
- Visibilité de 10 Km ou plus
- Pas de nuage au-dessous de 1500m ou au-dessous de l'altitude minimale du secteur la plus élevée (si>1500m) et absence de CB
- pas de temps présent significatif
26/15 température 26°C, point de rosée 15°C
 soit une humidité relative de 51%
Q1010 la pression au niveau de la mer (QNH) est de 1010 hPa
BECMG fluctuation du temps prévue
33015G25KT vent du 330°, moyenne: 15 noeuds, avec rafales à 25 noeuds